KACY/ACY METAR and TAF weather

Enter ICAO airport designator
Station Type Date Time Source
KACY METAR 2022/01/23 11:54 UTC NOAA

KACY 231154Z 00000KT 10SM CLR M06/M09 A3002 RMK AO2 SLP167 T10561089 11044 21072 56008


Station Type Date Time Source
KACY Decoded METAR 2022/01/23 11:54 UTC NOAA

ATLANTIC CITY INTERNATIONAL, NJ, United States (KACY) 39-28N 74-35W 35M
Jan 23, 2022 - 06:54 AM EST / 2022.01.23 1154 UTC
Wind: Calm:0
Visibility: 10 mile(s):0
Sky conditions: clear
Temperature: 21.9 F (-5.6 C)
Dew Point: 16.0 F (-8.9 C)
Relative Humidity: 77%
Pressure (altimeter): 30.02 in. Hg (1016 hPa)
Pressure tendency: 0.02 inches (0.8 hPa) lower than three hours ago
ob: KACY 231154Z 00000KT 10SM CLR M06/M09 A3002 RMK AO2 SLP167 T10561089 11044 21072 56008
cycle: 12

Station Type Date Time Source
KACY TAF 2022/01/23 12:40 UTC NOAA

TAF KACY 231134Z 2312/2412 26005KT P6SM SCT200
FM231600 25009KT P6SM BKN150
FM232300 VRB03KT P6SM OVC080
FM240800 33005KT P6SM SCT100

Example: see airport list